aviador You're here:

OMDB Decoded Metar

DUBAI in UNITED ARAB EMIRATES
Report Time2017-06-24 17:00:00
UTC Time2017-06-24 17:24:15
Flight Rules vfr VFR
Wind310° at 10 kt
W.Decomp.*RWY 30: 9.9 kt HW 1.6 kt RCW
W.Rank310° ranks 2
Current wind is below 310° avg. (10.4)
Visibility9999 m
Phenomena:N/A
Clouds:N/A
Expected CloudBase > 4,800 ft AGL from Temp-Dew spread
CeilingNone
Temp35°C (ISA +20)
Dew Point23°C (50% RH)
Heat Index40.7°C
QNH0998 hPa
Density Alt3,163 ft
Elevation16 ft
Report Wrong Elevation
Raw Report
METAR OMDB 241700Z 31010KT CAVOK 35/23 Q0998 NOSIG=

Extra information for OMDB:More info

Metar Taf Metar & Taf Last 4 Metars F.Rules Stats Wind Profile Meteogram Temp Stats Airport Information Weather charts Add Link Nearby VenuesMetar ALERT Operation Metar Decoded Social comments